^^
Station Historical Data
Daily Summary for April 9, 2017 Units:  Metric    English   Both
« Previous Day
Next Day »
Daily Weekly Monthly Yearly Custom
  High: Low: Average:
Temperature: 31.9 °C 18.6 °C 23 °C
Dew Point: 9.4 °C 3 °C 4.7 °C
Humidity: 39% 18% 32%
Wind Speed: 24.1km/h 0km/h 1.9km/h
Wind Gust: 30.6km/h - -
Wind- - West
Pressure: 1013.8 hPa 1009.4 hPa -
Precipitation: 0 mm    
Historical Graphs
 
 
Tabular Data for April 9, 2017
Time Temperature Dew Point Pressure Wind Wind Speed Wind Gust Humidity Rainfall Rate (Hourly) solar Conditions
00:00 21.1 °C 5.8 °C 1010.7 hPa Calm     37% 0 mm 0.0 W/m2
00:05 21.1 °C 5.4 °C 1010.7 hPa Calm     36% 0 mm 0.0 W/m2
00:11 21.1 °C 5 °C 1011.1 hPa Calm     35% 0 mm 0.0 W/m2
00:16 20.9 °C 5.3 °C 1010.7 hPa Calm     36% 0 mm 0.0 W/m2
00:21 20.8 °C 5.2 °C 1010.7 hPa Calm     36% 0 mm 0.0 W/m2
00:27 20.8 °C 4.8 °C 1011.1 hPa Calm     35% 0 mm 0.0 W/m2
00:37 20.8 °C 4.8 °C 1010.7 hPa Calm     35% 0 mm 0.0 W/m2
00:42 20.7 °C 4.7 °C 1011.1 hPa Calm     35% 0 mm 0.0 W/m2
00:47 20.9 °C 4.4 °C 1010.7 hPa Calm     34% 0 mm 0.0 W/m2
00:52 21 °C 4.5 °C 1010.7 hPa Calm     34% 0 mm 0.0 W/m2
00:58 21 °C 4.5 °C 1010.7 hPa Calm     34% 0 mm 0.0 W/m2
01:08 21.1 °C 4.6 °C 1010.7 hPa Calm     34% 0 mm 0.0 W/m2
01:13 21 °C 4.5 °C 1010.7 hPa Calm     34% 0 mm 0.0 W/m2
01:18 21 °C 4.5 °C 1010.7 hPa Calm     34% 0 mm 0.0 W/m2
01:28 21.2 °C 4.7 °C 1010.7 hPa Calm     34% 0 mm 0.0 W/m2
01:38 21.1 °C 4.6 °C 1010.7 hPa Calm     34% 0 mm 0.0 W/m2
01:44 21.1 °C 4.6 °C 1010.7 hPa Calm     34% 0 mm 0.0 W/m2
01:49 21.2 °C 4.7 °C 1010.4 hPa Calm     34% 0 mm 0.0 W/m2
01:54 21.1 °C 4.6 °C 1010.4 hPa Calm     34% 0 mm 0.0 W/m2
01:59 20.9 °C 4.4 °C 1010.4 hPa Calm     34% 0 mm 0.0 W/m2
02:04 20.6 °C 4.6 °C 1010.4 hPa Calm     35% 0 mm 0.0 W/m2
02:11 20.3 °C 4.3 °C 1010.4 hPa Calm     35% 0 mm 0.0 W/m2
02:20 20 °C 4.5 °C 1010.4 hPa Calm     36% 0 mm 0.0 W/m2
02:25 19.9 °C 4.4 °C 1010.4 hPa Calm     36% 0 mm 0.0 W/m2
02:30 19.8 °C 4.3 °C 1010.4 hPa Calm     36% 0 mm 0.0 W/m2
02:35 19.6 °C 4.1 °C 1010.4 hPa Calm     36% 0 mm 0.0 W/m2
02:41 19.4 °C 4.3 °C 1010.4 hPa Calm     37% 0 mm 0.0 W/m2
02:46 19.3 °C 4.2 °C 1010.4 hPa Calm     37% 0 mm 0.0 W/m2
02:51 19.2 °C 4.2 °C 1010.4 hPa Calm     37% 0 mm 0.0 W/m2
03:01 19 °C 4.4 °C 1010.4 hPa Calm     38% 0 mm 0.0 W/m2
03:06 18.9 °C 4.3 °C 1010.4 hPa Calm     38% 0 mm 0.0 W/m2
03:12 18.8 °C 4.2 °C 1010.4 hPa Calm     38% 0 mm 0.0 W/m2
03:17 18.7 °C 4.1 °C 1010.4 hPa Calm     38% 0 mm 0.0 W/m2
03:22 18.7 °C 4.1 °C 1010.4 hPa Calm     38% 0 mm 0.0 W/m2
03:28 18.7 °C 4.1 °C 1010 hPa Calm     38% 0 mm 0.0 W/m2
03:33 18.7 °C 4.1 °C 1010 hPa Calm     38% 0 mm 0.0 W/m2
03:38 18.7 °C 4.1 °C 1010 hPa Calm     38% 0 mm 0.0 W/m2
03:44 18.7 °C 4.1 °C 1010 hPa Calm     38% 0 mm 0.0 W/m2
03:49 18.7 °C 4.1 °C 1010 hPa Calm     38% 0 mm 0.0 W/m2
03:54 18.6 °C 4.4 °C 1010 hPa Calm     39% 0 mm 0.0 W/m2
03:59 18.7 °C 4.5 °C 1010 hPa Calm     39% 0 mm 0.0 W/m2
04:10 18.9 °C 4.3 °C 1010 hPa Calm     38% 0 mm 0.0 W/m2
04:15 18.9 °C 4.3 °C 1010.4 hPa Calm     38% 0 mm 0.0 W/m2
04:20 19 °C 4.4 °C 1010 hPa Calm     38% 0 mm 0.0 W/m2
04:25 18.9 °C 3.9 °C 1010 hPa Calm     37% 0 mm 0.0 W/m2
04:31 18.9 °C 4.3 °C 1010.4 hPa Calm     38% 0 mm 0.0 W/m2
04:41 18.7 °C 4.1 °C 1010.4 hPa Calm     38% 0 mm 0.0 W/m2
04:46 18.6 °C 3.6 °C 1010.4 hPa Calm     37% 0 mm 0.0 W/m2
04:51 18.6 °C 4 °C 1010.4 hPa Calm     38% 0 mm 0.0 W/m2
04:56 18.6 °C 3.6 °C 1010.4 hPa Calm     37% 0 mm 0.0 W/m2
05:01 18.6 °C 3.6 °C 1010.4 hPa Calm     37% 0 mm 0.0 W/m2
05:07 18.7 °C 3.7 °C 1010.7 hPa Calm     37% 0 mm 0.0 W/m2
05:12 18.8 °C 3.8 °C 1010.7 hPa Calm     37% 0 mm 0.0 W/m2
05:17 18.9 °C 3.9 °C 1010.7 hPa Calm     37% 0 mm 0.0 W/m2
05:22 18.9 °C 3.5 °C 1010.7 hPa Calm     36% 0 mm 0.0 W/m2
05:27 18.9 °C 3.5 °C 1010.7 hPa Calm     36% 0 mm 0.0 W/m2
05:32 19 °C 3.6 °C 1010.7 hPa Calm     36% 0 mm 0.0 W/m2
05:37 19 °C 3.6 °C 1010.7 hPa Calm     36% 0 mm 0.0 W/m2
05:42 19.1 °C 3.7 °C 1010.7 hPa Calm     36% 0 mm 0.0 W/m2
05:47 19.1 °C 3.7 °C 1010.7 hPa Calm     36% 0 mm 0.0 W/m2
05:52 19.2 °C 3.4 °C 1010.7 hPa Calm     35% 0 mm 0.0 W/m2
05:57 19.4 °C 3.5 °C 1011.1 hPa Calm     35% 0 mm 0.0 W/m2
06:08 19.7 °C 3.8 °C 1011.4 hPa Calm     35% 0 mm 5.0 W/m2
06:13 19.8 °C 3.5 °C 1011.7 hPa Calm     34% 0 mm 7.0 W/m2
06:18 19.8 °C 3.5 °C 1011.4 hPa Calm     34% 0 mm 11.0 W/m2
06:23 19.8 °C 3.5 °C 1011.7 hPa Calm     34% 0 mm 14.0 W/m2
06:29 19.9 °C 3.6 °C 1011.4 hPa Calm     34% 0 mm 18.0 W/m2
06:34 19.9 °C 3.1 °C 1011.4 hPa Calm     33% 0 mm 23.0 W/m2
06:39 19.8 °C 3.1 °C 1011.7 hPa Calm     33% 0 mm 28.0 W/m2
06:45 19.8 °C 3.5 °C 1011.7 hPa Calm     34% 0 mm 51.0 W/m2
06:51 20.1 °C 3.7 °C 1012.1 hPa Calm     34% 0 mm 26.0 W/m2
07:01 20.7 °C 3.4 °C 1012.1 hPa Calm     32% 0 mm 93.0 W/m2
07:07 20.8 °C 3 °C 1012.1 hPa Calm     31% 0 mm 53.0 W/m2
07:13 21.4 °C 3.6 °C 1012.4 hPa Calm     31% 0 mm 146.0 W/m2
07:29 22.4 °C 3.5 °C 1012.4 hPa Calm     29% 0 mm 229.0 W/m2
07:38 23.4 °C 3.3 °C 1012.4 hPa Calm     27% 0 mm 260.0 W/m2
07:44 23.6 °C 3.5 °C 1012.4 hPa Calm     27% 0 mm 281.0 W/m2
08:00 24.7 °C 3.3 °C 1012.8 hPa Calm     25% 0 mm 345.0 W/m2
08:10 25.4 °C 3.4 °C 1012.8 hPa Calm   6.4 km/h 24% 0 mm 378.0 W/m2
08:26 26.1 °C 4 °C 1012.8 hPa Calm     24% 0 mm 411.0 W/m2
08:36 26.6 °C 3.8 °C 1012.8 hPa Calm     23% 0 mm 441.0 W/m2
08:47 27.1 °C 4.2 °C 1012.8 hPa Calm   9.7 km/h 23% 0 mm 473.0 W/m2
09:03 27.7 °C 4 °C 1012.8 hPa SSW 4.7 km/h 9.7 km/h 22% 0 mm 517.0 W/m2
09:18 27.9 °C 4.9 °C 1012.8 hPa Calm   6.4 km/h 23% 0 mm 559.0 W/m2
09:30 28.3 °C 3.9 °C 1012.8 hPa SSW 1.4 km/h 9.7 km/h 21% 0 mm 601.0 W/m2
09:36 28.4 °C 3.3 °C 1012.4 hPa Calm   6.4 km/h 20% 0 mm 661.0 W/m2
09:53 28.8 °C 3.6 °C 1012.4 hPa SSW 1.4 km/h 6.4 km/h 20% 0 mm 647.0 W/m2
10:02 29 °C 3 °C 1012.1 hPa SSW 1.4 km/h 4.8 km/h 19% 0 mm 663.0 W/m2
10:22 29.8 °C 3.7 °C 1012.1 hPa SSW 9.7 km/h 9.7 km/h 19% 0 mm 703.0 W/m2
10:37 29.9 °C 3 °C 1012.1 hPa SW 1.4 km/h 14.5 km/h 18% 0 mm 729.0 W/m2
10:58 30.2 °C 4 °C 1012.1 hPa WSW 14.3 km/h 16.1 km/h 19% 0 mm 475.0 W/m2
11:08 30.1 °C 3.9 °C 1012.1 hPa Calm   1.6 km/h 19% 0 mm 492.0 W/m2
11:19 30.2 °C 3.3 °C 1012.1 hPa West 17.7 km/h 20.9 km/h 18% 0 mm 290.0 W/m2
11:28 29.8 °C 3.7 °C 1012.1 hPa West 11.1 km/h 20.9 km/h 19% 0 mm 262.0 W/m2
11:38 30 °C 3.1 °C 1012.1 hPa WNW 7.9 km/h 17.7 km/h 18% 0 mm 301.0 W/m2
11:45 29.9 °C 3 °C 1011.7 hPa WNW 9.7 km/h 20.9 km/h 18% 0 mm 359.0 W/m2
14:04 31.8 °C 6.1 °C 1010 hPa Calm   14.5 km/h 20% 0 mm 645.0 W/m2
14:26 31.9 °C 7.5 °C 1009.7 hPa NNW 3.2 km/h 24.1 km/h 22% 0 mm 591.0 W/m2
14:34 31.7 °C 8 °C 1009.7 hPa NNW 20.9 km/h 24.1 km/h 23% 0 mm 570.0 W/m2
14:51 31.4 °C 8.4 °C 1009.7 hPa NW 13 km/h 19.3 km/h 24% 0 mm 545.0 W/m2
14:59 30.9 °C 8 °C 1009.7 hPa NW 6.4 km/h 20.9 km/h 24% 0 mm 587.0 W/m2
15:25 31.8 °C 8.7 °C 1009.4 hPa NW 11.1 km/h 17.7 km/h 24% 0 mm 459.0 W/m2
15:35 31.5 °C 9.1 °C 1009.4 hPa NW 11.1 km/h 11.3 km/h 25% 0 mm 490.0 W/m2
15:45 31.9 °C 9.4 °C 1009.4 hPa NW 7.9 km/h 14.5 km/h 25% 0 mm 446.0 W/m2
16:08 31.2 °C 8.2 °C 1009.4 hPa NW 13 km/h 19.3 km/h 24% 0 mm 114.0 W/m2
16:22 30.9 °C 8.6 °C 1009.4 hPa Calm   12.9 km/h 25% 0 mm 276.0 W/m2
16:30 30.9 °C 8 °C 1009.4 hPa Calm     24% 0 mm 83.0 W/m2
16:46 31.4 °C 7.1 °C 1009.4 hPa Calm     22% 0 mm 81.0 W/m2
17:11 31 °C 6.1 °C 1009.7 hPa Calm     21% 0 mm 32.0 W/m2
17:26 30.9 °C 6 °C 1009.7 hPa Calm     21% 0 mm 19.0 W/m2
17:41 30 °C 5.3 °C 1010 hPa SW 24.1 km/h 30.6 km/h 21% 0 mm 0.0 W/m2
17:57 28.8 °C 5.6 °C 1010.4 hPa SW 16.3 km/h 24.1 km/h 23% 0 mm 0.0 W/m2
18:06 28.1 °C 5.6 °C 1010.7 hPa SW 16.3 km/h 25.7 km/h 24% 0 mm 0.0 W/m2
18:15 27.7 °C 5.9 °C 1010.7 hPa SW 19.5 km/h 25.7 km/h 25% 0 mm 0.0 W/m2
18:24 27.6 °C 5.8 °C 1011.1 hPa SW 9.7 km/h 19.3 km/h 25% 0 mm 0.0 W/m2
22:57 22.6 °C 6.8 °C 1013.4 hPa Calm     36% 0 mm 0.0 W/m2
23:02 22.4 °C 7 °C 1013.4 hPa Calm     37% 0 mm 0.0 W/m2
23:08 22.3 °C 6.9 °C 1013.4 hPa Calm     37% 0 mm 0.0 W/m2
23:13 22.2 °C 6.8 °C 1013.4 hPa Calm     37% 0 mm 0.0 W/m2
23:18 22.1 °C 7.1 °C 1013.8 hPa Calm     38% 0 mm 0.0 W/m2
23:23 22.1 °C 7.1 °C 1013.8 hPa Calm     38% 0 mm 0.0 W/m2
23:33 21.8 °C 6.8 °C 1013.4 hPa Calm     38% 0 mm 0.0 W/m2
23:39 21.7 °C 6.8 °C 1013.4 hPa Calm     38% 0 mm 0.0 W/m2
23:44 21.7 °C 6.8 °C 1013.4 hPa Calm     38% 0 mm 0.0 W/m2
23:49 21.9 °C 6.5 °C 1013.4 hPa Calm     37% 0 mm 0.0 W/m2
23:54 22 °C 6.6 °C 1013.4 hPa Calm     37% 0 mm 0.0 W/m2
Canyon Roadhouse, Fishriver Canyon, Namibia
Compliments of Weather Underground - 2.25 mb